createdAt,value
2019-05-12T00:00:39.179Z,9.33
2019-05-12T00:01:38.900Z,9.21
2019-05-12T00:02:39.435Z,9.24
2019-05-12T00:03:37.769Z,9.18
2019-05-12T00:04:38.477Z,9.31
2019-05-12T00:05:38.248Z,9.21
2019-05-12T00:06:38.691Z,9.21
2019-05-12T00:07:38.107Z,9.15
2019-05-12T00:08:38.096Z,9.18
2019-05-12T00:09:38.778Z,9.11
2019-05-12T00:10:38.677Z,9.15
2019-05-12T00:11:37.868Z,9.15
2019-05-12T00:12:38.410Z,9.12
2019-05-12T00:13:38.439Z,9.16
2019-05-12T00:14:38.112Z,9.09
2019-05-12T00:15:38.420Z,9.05
2019-05-12T00:16:38.339Z,8.99
2019-05-12T00:17:44.085Z,9.18
2019-05-12T00:18:37.736Z,9.19
2019-05-12T00:19:37.740Z,9.13
2019-05-12T00:20:38.595Z,8.99
2019-05-12T00:21:42.191Z,9.11
2019-05-12T00:22:38.135Z,9.02
2019-05-12T00:23:38.169Z,9.11
2019-05-12T00:24:38.295Z,8.93
2019-05-12T00:25:38.693Z,9.08
2019-05-12T00:26:38.263Z,9.09
2019-05-12T00:27:38.724Z,9.09
2019-05-12T00:28:37.649Z,9.15
2019-05-12T00:29:37.781Z,9.15
2019-05-12T00:30:38.762Z,8.95
2019-05-12T00:31:38.240Z,8.95
2019-05-12T00:32:38.543Z,9.02
2019-05-12T00:33:38.538Z,8.99
2019-05-12T00:34:38.527Z,8.93
2019-05-12T00:35:38.025Z,8.99
2019-05-12T00:36:38.005Z,8.96
2019-05-12T00:37:38.083Z,8.92
2019-05-12T00:42:53.742Z,8.92
2019-05-12T00:43:08.419Z,9
2019-05-12T00:44:08.169Z,8.9
2019-05-12T00:45:08.045Z,8.89
2019-05-12T00:46:07.906Z,8.86
2019-05-12T00:47:08.134Z,8.89
2019-05-12T00:48:08.648Z,8.9
2019-05-12T00:49:07.954Z,8.77
2019-05-12T00:50:07.993Z,8.82
2019-05-12T00:51:07.717Z,8.87
2019-05-12T00:52:08.009Z,8.89
2019-05-12T00:53:08.575Z,8.86
2019-05-12T00:54:08.848Z,8.86
2019-05-12T00:55:07.881Z,8.84
2019-05-12T00:56:08.304Z,8.86
2019-05-12T00:57:07.718Z,8.92
2019-05-12T00:58:08.146Z,8.86
2019-05-12T00:59:08.268Z,8.92
2019-05-12T01:00:08.215Z,8.77
2019-05-12T01:01:08.107Z,8.77
2019-05-12T01:02:07.887Z,8.74
2019-05-12T01:03:08.307Z,8.84
2019-05-12T01:04:08.489Z,8.81
2019-05-12T01:05:08.297Z,8.78
2019-05-12T01:06:08.347Z,8.77
2019-05-12T01:07:08.512Z,8.77
2019-05-12T01:08:08.853Z,8.74
2019-05-12T01:09:08.528Z,8.81
2019-05-12T01:10:11.408Z,8.78
2019-05-12T01:11:08.629Z,8.89
2019-05-12T01:12:07.900Z,8.82
2019-05-12T01:13:08.486Z,8.78
2019-05-12T01:14:08.303Z,8.69
2019-05-12T01:15:07.461Z,8.71
2019-05-12T01:16:08.065Z,8.71
2019-05-12T01:17:08.245Z,8.75
2019-05-12T01:18:08.887Z,8.71
2019-05-12T01:19:07.913Z,8.78
2019-05-12T01:20:08.662Z,8.77
2019-05-12T01:21:07.719Z,8.72
2019-05-12T01:22:08.047Z,8.74
2019-05-12T01:23:08.212Z,8.77
2019-05-12T01:24:11.593Z,8.84
2019-05-12T01:25:08.322Z,8.75
2019-05-12T01:26:08.636Z,8.71
2019-05-12T01:27:08.490Z,8.77
2019-05-12T01:28:08.073Z,8.74
2019-05-12T01:33:22.856Z,8.61
2019-05-12T01:33:37.961Z,8.61
2019-05-12T01:34:38.162Z,8.6
2019-05-12T01:35:38.312Z,8.63
2019-05-12T01:36:38.077Z,8.75
2019-05-12T01:37:38.267Z,8.63
2019-05-12T01:38:37.907Z,8.74
2019-05-12T01:39:38.281Z,8.68
2019-05-12T01:40:38.498Z,8.53
2019-05-12T01:41:36.157Z,8.63
2019-05-12T01:42:38.186Z,8.61
2019-05-12T01:47:08.310Z,8.61
2019-05-12T01:48:08.636Z,8.68
2019-05-12T01:49:08.174Z,8.68
2019-05-12T01:50:08.727Z,8.61
2019-05-12T01:51:08.347Z,8.74
2019-05-12T01:52:08.556Z,8.5
2019-05-12T01:53:08.124Z,8.6
2019-05-12T01:54:18.833Z,8.45
2019-05-12T01:55:08.134Z,8.61
2019-05-12T01:56:07.815Z,8.52
2019-05-12T01:57:08.077Z,8.54
2019-05-12T01:58:08.269Z,8.56
2019-05-12T01:59:08.090Z,8.44
2019-05-12T02:00:08.022Z,8.46
2019-05-12T02:01:10.844Z,8.5
2019-05-12T02:02:08.452Z,8.52
2019-05-12T02:03:08.430Z,8.46
2019-05-12T02:04:07.708Z,8.46
2019-05-12T02:05:08.474Z,8.45
2019-05-12T02:06:08.371Z,8.44
2019-05-12T02:07:08.321Z,8.42
2019-05-12T02:08:06.456Z,8.41
2019-05-12T02:09:08.049Z,8.32
2019-05-12T02:10:09.086Z,8.32
2019-05-12T02:11:07.905Z,8.38
2019-05-12T02:12:08.207Z,8.34
2019-05-12T02:13:07.863Z,8.28
2019-05-12T02:14:08.983Z,8.26
2019-05-12T02:15:08.127Z,8.32
2019-05-12T02:16:08.284Z,8.38
2019-05-12T02:17:08.657Z,8.34
2019-05-12T02:18:08.761Z,8.26
2019-05-12T02:19:08.662Z,8.31
2019-05-12T02:20:07.701Z,8.35
2019-05-12T02:21:08.375Z,8.38
2019-05-12T02:22:08.393Z,8.28
2019-05-12T02:23:08.832Z,8.23
2019-05-12T02:24:07.754Z,8.27
2019-05-12T02:25:08.068Z,8.27
2019-05-12T02:26:08.214Z,8.28
2019-05-12T02:27:08.248Z,8.31
2019-05-12T02:28:08.777Z,8.18
2019-05-12T02:29:07.850Z,8.2
2019-05-12T02:30:09.641Z,8.14
2019-05-12T02:31:09.215Z,8.24
2019-05-12T02:32:06.508Z,8.23
2019-05-12T02:33:11.835Z,8.26
2019-05-12T02:34:08.371Z,8.27
2019-05-12T02:35:08.528Z,8.28
2019-05-12T02:36:09.860Z,8.16
2019-05-12T02:37:10.480Z,8.21
2019-05-12T02:38:09.774Z,8.11
2019-05-12T02:39:08.109Z,8.2
2019-05-12T02:40:10.569Z,8.13
2019-05-12T02:41:10.139Z,8.31
2019-05-12T02:42:10.395Z,8.28
2019-05-12T02:43:08.334Z,8.18
2019-05-12T02:44:07.968Z,8.21
2019-05-12T02:45:08.274Z,8.18
2019-05-12T02:46:09.967Z,8.2
2019-05-12T02:47:10.179Z,8.2
2019-05-12T02:48:07.859Z,8.16
2019-05-12T02:49:09.968Z,8.08
2019-05-12T02:50:08.978Z,8.11
2019-05-12T02:51:10.551Z,8.09
2019-05-12T02:52:07.813Z,8.18
2019-05-12T02:53:07.940Z,8.23
2019-05-12T02:54:08.237Z,8.24
2019-05-12T02:55:11.323Z,8.18
2019-05-12T02:56:10.103Z,8.23
2019-05-12T02:57:09.618Z,8.13
2019-05-12T02:58:10.373Z,8.21
2019-05-12T02:59:10.328Z,8.13
2019-05-12T03:00:10.296Z,8.26
2019-05-12T03:01:10.508Z,8.17
2019-05-12T03:02:07.927Z,8.24
2019-05-12T03:03:08.263Z,8.24
2019-05-12T03:04:08.468Z,8.16
2019-05-12T03:05:08.270Z,8.23
2019-05-12T03:06:08.157Z,8.16
2019-05-12T03:07:14.811Z,8.09
2019-05-12T03:08:10.071Z,8.24
2019-05-12T03:09:10.245Z,8.28
2019-05-12T03:10:10.666Z,8.17
2019-05-12T03:11:27.441Z,8.2
2019-05-12T03:12:28.263Z,8.2
2019-05-12T03:13:28.001Z,8.31
2019-05-12T03:14:27.927Z,8.17
2019-05-12T03:15:27.772Z,8.18
2019-05-12T03:16:28.417Z,8.31
2019-05-12T03:17:30.328Z,8.32
2019-05-12T03:18:27.976Z,8.31
2019-05-12T03:19:27.945Z,8.16
2019-05-12T03:20:29.446Z,8.17
2019-05-12T03:21:29.695Z,8.23
2019-05-12T03:22:30.338Z,8.34
2019-05-12T03:23:29.910Z,8.18
2019-05-12T03:24:27.730Z,8.21
2019-05-12T03:25:38.407Z,8.26
2019-05-12T03:26:29.765Z,8.24
2019-05-12T03:27:28.380Z,8.28
2019-05-12T03:28:28.368Z,8.26
2019-05-12T03:29:27.864Z,8.23
2019-05-12T03:30:36.794Z,8.28
2019-05-12T03:31:47.580Z,8.39
2019-05-12T03:32:37.018Z,8.24
2019-05-12T03:33:51.907Z,8.39
2019-05-12T03:34:37.309Z,8.31
2019-05-12T03:35:42.244Z,8.39
2019-05-12T03:36:41.548Z,8.31
2019-05-12T03:37:35.292Z,8.38
2019-05-12T03:38:29.940Z,8.31
2019-05-12T03:39:27.750Z,8.24
2019-05-12T03:40:30.055Z,8.41
2019-05-12T03:41:27.760Z,8.34
2019-05-12T03:42:30.203Z,8.39
2019-05-12T03:43:29.556Z,8.26
2019-05-12T03:44:27.924Z,8.26
2019-05-12T03:45:27.812Z,8.26
2019-05-12T03:46:30.047Z,8.14
2019-05-12T03:47:27.871Z,8.17
2019-05-12T03:48:27.958Z,8.38
2019-05-12T03:49:29.633Z,8.21
2019-05-12T03:50:29.594Z,8.31
2019-05-12T03:51:30.794Z,8.27
2019-05-12T03:52:29.766Z,8.21
2019-05-12T03:53:29.761Z,8.18
2019-05-12T03:54:29.610Z,8.14
2019-05-12T03:55:48.178Z,8.2
2019-05-12T03:56:28.728Z,8.2
2019-05-12T03:57:28.050Z,8.18
2019-05-12T03:58:28.301Z,8.26
2019-05-12T03:59:28.253Z,8.2
2019-05-12T04:00:29.898Z,8.21
2019-05-12T04:01:28.323Z,8.21
2019-05-12T04:02:27.869Z,8.28
2019-05-12T04:03:30.159Z,8.23
2019-05-12T04:04:29.595Z,8.16
2019-05-12T04:05:29.474Z,8.09
2019-05-12T04:06:29.653Z,8.2
2019-05-12T04:07:29.571Z,8.21
2019-05-12T04:08:29.826Z,8.31
2019-05-12T04:09:30.189Z,8.2
2019-05-12T04:10:29.876Z,8.27
2019-05-12T04:11:27.717Z,8.13
2019-05-12T04:12:28.214Z,8.21
2019-05-12T04:13:29.323Z,8.26
2019-05-12T04:14:27.946Z,8.31
2019-05-12T04:15:28.364Z,8.09
2019-05-12T04:16:29.874Z,8.18
2019-05-12T04:17:34.574Z,8.09
2019-05-12T04:18:29.909Z,8.16
2019-05-12T04:19:27.625Z,8.27
2019-05-12T04:20:28.140Z,8.2
2019-05-12T04:21:29.854Z,8.28
2019-05-12T04:22:30.081Z,8.27
2019-05-12T04:23:29.926Z,8.34
2019-05-12T04:24:30.151Z,8.27
2019-05-12T04:26:04.807Z,8.34
2019-05-12T04:26:30.473Z,8.34
2019-05-12T04:27:27.860Z,8.39
2019-05-12T04:28:29.752Z,8.17
2019-05-12T04:29:30.145Z,8.24
2019-05-12T04:30:30.163Z,8.23
2019-05-12T04:31:29.916Z,8.23
2019-05-12T04:32:27.769Z,8.31
2019-05-12T04:33:28.437Z,8.32
2019-05-12T04:34:27.825Z,8.35
2019-05-12T04:35:27.877Z,8.28
2019-05-12T04:36:29.863Z,8.35
2019-05-12T04:37:27.889Z,8.38
2019-05-12T04:38:30.042Z,8.34
2019-05-12T04:39:27.965Z,8.34
2019-05-12T04:40:29.892Z,8.34
2019-05-12T04:41:28.775Z,8.41
2019-05-12T04:42:30.256Z,8.45
2019-05-12T04:43:30.504Z,8.38
2019-05-12T04:44:27.837Z,8.44
2019-05-12T04:45:28.312Z,8.5
2019-05-12T04:46:27.965Z,8.18
2019-05-12T04:47:27.953Z,8.28
2019-05-12T04:48:28.595Z,8.23
2019-05-12T04:49:30.177Z,8.26
2019-05-12T04:50:29.778Z,8.35
2019-05-12T04:51:28.677Z,8.39
2019-05-12T04:52:30.002Z,8.44
2019-05-12T04:53:30.362Z,8.36
2019-05-12T04:54:29.820Z,8.35
2019-05-12T04:55:28.325Z,8.35
2019-05-12T04:56:30.073Z,8.38
2019-05-12T04:57:28.092Z,8.38
2019-05-12T04:58:28.211Z,8.41
2019-05-12T04:59:28.066Z,8.5
2019-05-12T05:00:28.499Z,8.46
2019-05-12T05:01:28.118Z,8.45
2019-05-12T05:02:30.111Z,8.5
2019-05-12T05:03:30.282Z,8.54
2019-05-12T05:04:29.597Z,8.46
2019-05-12T05:05:27.610Z,8.46
2019-05-12T05:06:28.086Z,8.5
2019-05-12T05:07:29.551Z,8.42
2019-05-12T05:08:29.515Z,8.46
2019-05-12T05:09:30.117Z,8.46
2019-05-12T05:10:27.664Z,8.46
2019-05-12T05:11:27.734Z,8.39
2019-05-12T05:12:29.069Z,8.28
2019-05-12T05:13:29.753Z,8.32
2019-05-12T05:14:27.470Z,8.38
2019-05-12T05:15:27.661Z,8.34
2019-05-12T05:16:27.639Z,8.35
2019-05-12T05:17:29.561Z,8.42
2019-05-12T05:18:29.008Z,8.52
2019-05-12T05:19:27.112Z,8.53
2019-05-12T05:20:29.188Z,8.46
2019-05-12T05:21:26.776Z,8.52
2019-05-12T05:22:26.962Z,8.49
2019-05-12T05:23:26.916Z,8.59
2019-05-12T05:24:28.718Z,8.54
2019-05-12T05:25:28.846Z,8.53
2019-05-12T05:26:37.602Z,8.66
2019-05-12T05:27:27.416Z,8.56
2019-05-12T05:28:28.809Z,8.54
2019-05-12T05:29:26.726Z,8.61
2019-05-12T05:30:27.005Z,8.44
2019-05-12T05:31:27.084Z,8.49
2019-05-12T05:32:28.509Z,8.54
2019-05-12T05:33:29.002Z,8.64
2019-05-12T05:34:28.811Z,8.71
2019-05-12T05:35:34.912Z,8.69
2019-05-12T05:36:27.715Z,8.74
2019-05-12T05:37:36.729Z,8.71
2019-05-12T05:38:28.915Z,8.77
2019-05-12T05:39:29.480Z,8.81
2019-05-12T05:40:35.615Z,8.79
2019-05-12T05:41:29.242Z,8.79
2019-05-12T05:42:35.577Z,8.86
2019-05-12T05:43:26.927Z,8.87
2019-05-12T05:44:29.055Z,8.72
2019-05-12T05:45:31.076Z,8.86
2019-05-12T05:46:26.814Z,8.82
2019-05-12T05:47:33.737Z,8.75
2019-05-12T05:48:31.967Z,8.86
2019-05-12T05:49:29.016Z,8.95
2019-05-12T05:50:34.253Z,8.87
2019-05-12T05:51:29.020Z,9.08
2019-05-12T05:52:43.262Z,8.86
2019-05-12T05:53:26.984Z,8.95
2019-05-12T05:54:40.134Z,9
2019-05-12T05:55:28.580Z,8.97
2019-05-12T05:56:59.406Z,8.84
2019-05-12T05:57:33.606Z,8.92
2019-05-12T05:58:28.887Z,8.86
2019-05-12T05:59:39.412Z,8.95
2019-05-12T06:00:30.922Z,9
2019-05-12T06:01:29.624Z,8.95
2019-05-12T06:02:40.290Z,8.86
2019-05-12T06:03:33.801Z,9.09
2019-05-12T06:04:28.982Z,9.13
2019-05-12T06:05:38.623Z,9.05
2019-05-12T06:06:28.933Z,9.11
2019-05-12T06:07:39.203Z,9.18
2019-05-12T06:08:28.917Z,9.18
2019-05-12T06:09:28.767Z,9.26
2019-05-12T06:10:43.533Z,9.27
2019-05-12T06:11:31.817Z,9.34
2019-05-12T06:12:26.685Z,9.29
2019-05-12T06:13:39.946Z,9.27
2019-05-12T06:14:29.056Z,9.24
2019-05-12T06:15:35.516Z,9.31
2019-05-12T06:16:30.186Z,9.27
2019-05-12T06:17:31.278Z,9.42
2019-05-12T06:18:33.397Z,9.31
2019-05-12T06:19:30.885Z,9.4
2019-05-12T06:20:29.010Z,9.27
2019-05-12T06:21:28.992Z,9.26
2019-05-12T06:22:29.105Z,9.16
2019-05-12T06:23:34.715Z,9.26
2019-05-12T06:24:27.085Z,9.27
2019-05-12T06:25:40.934Z,9.27
2019-05-12T06:26:38.501Z,9.31
2019-05-12T06:27:27.078Z,9.31
2019-05-12T06:28:31.002Z,9.34
2019-05-12T06:29:29.616Z,9.29
2019-05-12T06:30:26.982Z,9.29
2019-05-12T06:31:35.959Z,9.24
2019-05-12T06:32:27.805Z,9.39
2019-05-12T06:33:38.996Z,9.48
2019-05-12T06:34:29.057Z,9.42
2019-05-12T06:35:30.816Z,9.47
2019-05-12T06:36:30.728Z,9.3
2019-05-12T06:37:28.865Z,9.29
2019-05-12T06:38:36.841Z,9.33
2019-05-12T06:39:28.733Z,9.4
2019-05-12T06:40:30.688Z,9.34
2019-05-12T06:41:30.943Z,9.48
2019-05-12T06:42:29.410Z,9.44
2019-05-12T06:43:29.035Z,9.39
2019-05-12T06:44:26.768Z,9.36
2019-05-12T06:45:33.878Z,9.48
2019-05-12T06:46:30.834Z,9.29
2019-05-12T06:47:29.180Z,9.27
2019-05-12T06:48:35.933Z,9.44
2019-05-12T06:49:27.408Z,9.48
2019-05-12T06:50:34.335Z,9.48
2019-05-12T06:51:30.599Z,9.44
2019-05-12T06:52:29.039Z,9.4
2019-05-12T06:53:36.316Z,9.51
2019-05-12T06:54:27.421Z,9.48
2019-05-12T06:55:34.164Z,9.26
2019-05-12T06:56:28.767Z,9.4
2019-05-12T06:57:34.235Z,9.44
2019-05-12T06:58:37.113Z,9.48
2019-05-12T06:59:28.906Z,9.37
2019-05-12T07:00:35.164Z,9.51
2019-05-12T07:01:30.311Z,9.27
2019-05-12T07:02:30.163Z,9.47
2019-05-12T07:03:36.840Z,9.34
2019-05-12T07:04:29.867Z,9.42
2019-05-12T07:05:33.608Z,9.31
2019-05-12T07:06:30.633Z,9.47
2019-05-12T07:07:46.149Z,9.44
2019-05-12T07:08:43.653Z,9.42
2019-05-12T07:09:50.035Z,9.45
2019-05-12T07:10:57.288Z,9.36
2019-05-12T07:11:41.465Z,9.47
2019-05-12T07:12:58.711Z,9.49
2019-05-12T07:13:36.903Z,9.47
2019-05-12T07:14:34.496Z,9.49
2019-05-12T07:15:35.450Z,9.52
2019-05-12T07:16:36.821Z,9.39
2019-05-12T07:17:29.149Z,9.44
2019-05-12T07:18:39.638Z,9.51
2019-05-12T07:19:33.721Z,9.54
2019-05-12T07:20:35.194Z,9.45
2019-05-12T07:21:33.474Z,9.49
2019-05-12T07:22:43.527Z,9.51
2019-05-12T07:23:33.694Z,9.47
2019-05-12T07:24:29.237Z,9.49
2019-05-12T07:25:39.568Z,9.48
2019-05-12T07:26:28.847Z,9.63
2019-05-12T07:27:45.531Z,9.64
2019-05-12T07:28:36.111Z,9.67
2019-05-12T07:29:29.170Z,9.67
2019-05-12T07:30:26.824Z,9.72
2019-05-12T07:31:28.758Z,9.74
2019-05-12T07:32:29.807Z,9.9
2019-05-12T07:33:45.782Z,9.81
2019-05-12T07:34:29.820Z,9.73
2019-05-12T07:35:29.311Z,9.85
2019-05-12T07:36:29.490Z,9.72
2019-05-12T07:37:30.034Z,9.91
2019-05-12T07:38:31.266Z,9.91
2019-05-12T07:39:29.478Z,9.77
2019-05-12T07:40:38.076Z,9.73
2019-05-12T07:41:28.886Z,9.74
2019-05-12T07:42:43.826Z,9.72
2019-05-12T07:43:26.971Z,9.7
2019-05-12T07:44:44.077Z,9.63
2019-05-12T07:45:30.366Z,9.69
2019-05-12T07:46:30.716Z,9.77
2019-05-12T07:47:33.214Z,9.81
2019-05-12T07:48:28.708Z,9.87
2019-05-12T07:49:41.309Z,9.77
2019-05-12T07:50:34.405Z,9.95
2019-05-12T07:51:36.199Z,9.73
2019-05-12T07:52:29.409Z,9.82
2019-05-12T07:53:29.360Z,9.74
2019-05-12T07:54:35.198Z,9.84
2019-05-12T07:55:28.937Z,9.84
2019-05-12T07:56:40.576Z,9.81
2019-05-12T07:57:27.903Z,9.85
2019-05-12T07:58:29.395Z,9.87
2019-05-12T07:59:43.841Z,9.87
2019-05-12T08:00:30.949Z,9.91
2019-05-12T08:01:28.812Z,9.97
2019-05-12T08:02:38.370Z,9.9
2019-05-12T08:03:30.057Z,10.02
2019-05-12T08:04:39.704Z,10.07
2019-05-12T08:05:29.983Z,10.1
2019-05-12T08:06:27.201Z,10.21
2019-05-12T08:07:33.811Z,10.3
2019-05-12T08:08:28.934Z,10.36
2019-05-12T08:09:39.110Z,10.39
2019-05-12T08:10:28.754Z,10.39
2019-05-12T08:11:34.538Z,10.55
2019-05-12T08:12:29.231Z,10.45
2019-05-12T08:13:37.426Z,10.57
2019-05-12T08:14:35.862Z,10.65
2019-05-12T08:15:27.368Z,10.57
2019-05-12T08:16:39.357Z,10.8
2019-05-12T08:17:33.630Z,10.79
2019-05-12T08:18:36.604Z,10.84
2019-05-12T08:19:34.388Z,10.97
2019-05-12T08:20:29.070Z,10.98
2019-05-12T08:21:27.047Z,11.15
2019-05-12T08:22:34.689Z,11.27
2019-05-12T08:23:28.943Z,11.35
2019-05-12T08:24:29.109Z,11.35
2019-05-12T08:25:34.253Z,11.44
2019-05-12T08:26:29.061Z,11.49
2019-05-12T08:27:28.767Z,11.34
2019-05-12T08:28:44.129Z,11.44
2019-05-12T08:29:29.599Z,11.33
2019-05-12T08:30:29.315Z,11.4
2019-05-12T08:31:40.722Z,11.13
2019-05-12T08:32:29.924Z,11.44
2019-05-12T08:33:29.207Z,11.4
2019-05-12T08:34:28.973Z,11.26
2019-05-12T08:35:40.619Z,11.31
2019-05-12T08:36:29.110Z,11.48
2019-05-12T08:37:29.667Z,11.52
2019-05-12T08:38:27.622Z,11.44
2019-05-12T08:39:30.600Z,11.49
2019-05-12T08:40:27.598Z,11.43
2019-05-12T08:41:28.809Z,11.86
2019-05-12T08:42:29.798Z,11.91
2019-05-12T08:43:29.283Z,12.32
2019-05-12T08:44:43.911Z,12.39
2019-05-12T08:45:39.698Z,12.37
2019-05-12T08:46:29.647Z,12.43
2019-05-12T08:47:35.388Z,12.65
2019-05-12T08:48:30.186Z,12.61
2019-05-12T08:49:32.927Z,12.29
2019-05-12T08:50:38.863Z,12.51
2019-05-12T08:51:33.870Z,12.5
2019-05-12T08:52:36.935Z,12.72
2019-05-12T08:53:33.489Z,12.8
2019-05-12T08:54:29.260Z,13.3
2019-05-12T08:55:38.516Z,13.39
2019-05-12T08:56:33.097Z,13.28
2019-05-12T08:57:32.442Z,13.17
2019-05-12T08:58:51.949Z,13.43
2019-05-12T08:59:34.146Z,13.42
2019-05-12T09:00:28.969Z,13.4
2019-05-12T09:01:37.047Z,13.54
2019-05-12T09:02:29.261Z,13.65
2019-05-12T09:03:40.287Z,13.83
2019-05-12T09:04:27.516Z,13.98
2019-05-12T09:05:41.206Z,13.79
2019-05-12T09:06:29.843Z,13.46
2019-05-12T09:07:35.655Z,12.93
2019-05-12T09:08:29.407Z,13.11
2019-05-12T09:09:28.531Z,13.23
2019-05-12T09:10:28.828Z,13.27
2019-05-12T09:11:27.983Z,13.08
2019-05-12T09:12:33.589Z,13.06
2019-05-12T09:13:29.441Z,13.43
2019-05-12T09:14:33.384Z,13.31
2019-05-12T09:15:29.230Z,13.82
2019-05-12T09:16:29.646Z,14.41
2019-05-12T09:17:29.340Z,14.23
2019-05-12T09:18:39.301Z,14.53
2019-05-12T09:19:33.170Z,14.33
2019-05-12T09:20:29.466Z,14.68
2019-05-12T09:21:39.243Z,14.71
2019-05-12T09:22:42.851Z,14.63
2019-05-12T09:23:32.595Z,14.59
2019-05-12T09:24:33.725Z,14.53
2019-05-12T09:25:29.247Z,15
2019-05-12T09:26:34.337Z,14.81
2019-05-12T09:27:30.044Z,14.97
2019-05-12T09:28:29.243Z,14.79
2019-05-12T09:29:28.027Z,14.66
2019-05-12T09:30:29.366Z,14.94
2019-05-12T09:31:33.857Z,14.67
2019-05-12T09:32:29.226Z,14.66
2019-05-12T09:33:37.369Z,15.05
2019-05-12T09:34:29.451Z,15.11
2019-05-12T09:35:34.683Z,14.7
2019-05-12T09:36:29.537Z,14.25
2019-05-12T09:37:38.566Z,14.63
2019-05-12T09:38:33.118Z,14.99
2019-05-12T09:39:33.898Z,14.92
2019-05-12T09:40:29.578Z,14.92
2019-05-12T09:41:34.001Z,14.62
2019-05-12T09:42:33.609Z,14.7
2019-05-12T09:43:29.385Z,14.68
2019-05-12T09:44:36.729Z,14.52
2019-05-12T09:45:26.978Z,14.62
2019-05-12T09:46:37.554Z,14.15
2019-05-12T09:47:34.279Z,14
2019-05-12T09:48:27.390Z,14.28
2019-05-12T09:49:44.274Z,14.31
2019-05-12T09:50:28.753Z,14.18
2019-05-12T09:51:32.749Z,14.11
2019-05-12T09:52:33.324Z,14.11
2019-05-12T09:53:29.018Z,14.11
2019-05-12T09:54:44.378Z,13.98
2019-05-12T09:55:29.995Z,14.23
2019-05-12T09:56:29.305Z,14.11
2019-05-12T09:57:32.221Z,14.18
2019-05-12T09:58:30.892Z,14.19
2019-05-12T09:59:30.774Z,14.37
2019-05-12T10:00:35.696Z,14.3
2019-05-12T10:01:35.110Z,14.16
2019-05-12T10:02:29.401Z,13.91
2019-05-12T10:03:38.347Z,13.94
2019-05-12T10:04:26.961Z,13.94
2019-05-12T10:05:30.389Z,13.82
2019-05-12T10:06:27.318Z,14.07
2019-05-12T10:07:27.044Z,13.93
2019-05-12T10:12:50.409Z,14.18
2019-05-12T10:13:04.303Z,14.87
2019-05-12T10:14:13.823Z,15.45
2019-05-12T10:15:04.065Z,15.51
2019-05-12T10:16:10.084Z,15.73
2019-05-12T10:17:03.573Z,15.88
2019-05-12T10:18:14.078Z,16.41
2019-05-12T10:19:03.927Z,16.37
2019-05-12T10:20:03.455Z,16.29
2019-05-12T10:21:02.144Z,15.72
2019-05-12T10:22:05.412Z,15.45
2019-05-12T10:23:04.276Z,15.59
2019-05-12T10:24:07.731Z,15.73
2019-05-12T10:25:06.602Z,16.08
2019-05-12T10:26:14.657Z,16.49
2019-05-12T10:27:03.720Z,16.44
2019-05-12T10:28:15.515Z,15.88
2019-05-12T10:29:20.708Z,15.66
2019-05-12T10:30:17.155Z,15.73
2019-05-12T10:31:04.128Z,15.55
2019-05-12T10:32:03.943Z,15.85
2019-05-12T10:33:03.667Z,15.26
2019-05-12T10:34:05.947Z,15.37
2019-05-12T10:35:02.190Z,15.18
2019-05-12T10:36:11.226Z,15.6
2019-05-12T10:37:03.621Z,16.17
2019-05-12T10:38:13.169Z,16.08
2019-05-12T10:39:04.171Z,15.99
2019-05-12T10:40:03.671Z,16.59
2019-05-12T10:41:04.225Z,16.12
2019-05-12T10:42:02.107Z,16.32
2019-05-12T10:43:04.404Z,16.43
2019-05-12T10:44:04.041Z,16.43
2019-05-12T10:45:04.155Z,16.41
2019-05-12T10:46:04.010Z,16.4
2019-05-12T10:47:04.187Z,16.98
2019-05-12T10:48:03.560Z,17.07
2019-05-12T10:49:03.907Z,17.17
2019-05-12T10:50:02.389Z,17.22
2019-05-12T10:51:02.126Z,17.39
2019-05-12T10:52:03.841Z,17.13
2019-05-12T10:53:04.382Z,17.42
2019-05-12T10:54:17.598Z,17.87
2019-05-12T10:55:04.306Z,17.54
2019-05-12T10:56:02.264Z,17.76
2019-05-12T10:57:04.717Z,17.2
2019-05-12T10:58:09.882Z,17.22
2019-05-12T10:59:04.036Z,17.17
2019-05-12T11:00:04.101Z,16.72
2019-05-12T11:01:10.029Z,17.19
2019-05-12T11:02:03.475Z,17.05
2019-05-12T11:03:15.596Z,16.62
2019-05-12T11:04:03.927Z,17.16
2019-05-12T11:05:02.164Z,17.22
2019-05-12T11:06:10.425Z,17.41
2019-05-12T11:07:04.476Z,17.72
2019-05-12T11:08:14.250Z,17.79
2019-05-12T11:09:03.714Z,18.16
2019-05-12T11:10:19.565Z,17.97
2019-05-12T11:11:07.279Z,17.66
2019-05-12T11:12:03.353Z,17.47
2019-05-12T11:13:10.143Z,17.2
2019-05-12T11:14:03.903Z,17.5
2019-05-12T11:15:09.712Z,17.8
2019-05-12T11:16:03.758Z,17.8
2019-05-12T11:17:07.499Z,17.65
2019-05-12T11:18:02.313Z,17.86
2019-05-12T11:19:13.579Z,17.78
2019-05-12T11:20:04.081Z,18.18
2019-05-12T11:21:03.550Z,18.41
2019-05-12T11:22:03.613Z,18.55
2019-05-12T11:23:03.460Z,18.55
2019-05-12T11:24:03.819Z,18.61
2019-05-12T11:25:04.262Z,18.36
2019-05-12T11:26:03.853Z,18.11
2019-05-12T11:27:04.041Z,17.71
2019-05-12T11:28:03.610Z,17.76
2019-05-12T11:29:03.752Z,18
2019-05-12T11:30:04.160Z,17.82
2019-05-12T11:31:02.793Z,17.5
2019-05-12T11:32:02.397Z,17.32
2019-05-12T11:33:07.057Z,17.93
2019-05-12T11:34:04.545Z,17.84
2019-05-12T11:35:04.090Z,18.02
2019-05-12T11:36:04.240Z,18.43
2019-05-12T11:37:03.374Z,18.43
2019-05-12T11:38:04.386Z,17.95
2019-05-12T11:43:09.926Z,18.02
2019-05-12T11:44:09.432Z,18.02
2019-05-12T11:45:09.474Z,17.5
2019-05-12T11:46:09.517Z,17.82
2019-05-12T11:47:14.606Z,17.6
2019-05-12T11:48:17.169Z,17.53
2019-05-12T11:49:13.768Z,17.88
2019-05-12T11:50:16.012Z,18.02
2019-05-12T11:51:09.483Z,17.84
2019-05-12T11:52:21.227Z,17.46
2019-05-12T11:53:09.763Z,17.38
2019-05-12T11:54:16.469Z,17.14
2019-05-12T11:55:09.655Z,16.55
2019-05-12T11:56:13.833Z,17.01
2019-05-12T11:57:09.488Z,17.49
2019-05-12T11:58:14.472Z,17.57
2019-05-12T11:59:09.460Z,17.9
2019-05-12T12:00:10.761Z,18.12
2019-05-12T12:01:13.819Z,18.06
2019-05-12T12:02:09.490Z,18.28
2019-05-12T12:03:23.255Z,17.91
2019-05-12T12:04:09.534Z,18.28
2019-05-12T12:05:09.571Z,18
2019-05-12T12:06:09.613Z,17.82
2019-05-12T12:07:09.583Z,17.73
2019-05-12T12:08:09.438Z,17.41
2019-05-12T12:09:20.261Z,17.01
2019-05-12T12:10:09.485Z,16.95
2019-05-12T12:11:22.015Z,17.19
2019-05-12T12:12:13.447Z,17.46
2019-05-12T12:13:09.588Z,17.86
2019-05-12T12:18:33.641Z,17.75
2019-05-12T12:18:57.606Z,18.52
2019-05-12T12:19:54.250Z,17.82
2019-05-12T12:20:46.991Z,17.65
2019-05-12T12:21:53.219Z,18.08
2019-05-12T12:22:54.215Z,18.3
2019-05-12T12:23:53.414Z,18.08
2019-05-12T12:24:46.293Z,18.36
2019-05-12T12:25:53.414Z,18.42
2019-05-12T12:26:47.327Z,18.08
2019-05-12T12:27:47.017Z,18.63
2019-05-12T12:28:46.193Z,18.24
2019-05-12T12:29:46.608Z,17.84
2019-05-12T12:30:52.302Z,18.49
2019-05-12T12:31:46.054Z,18.57
2019-05-12T12:32:50.227Z,18.05
2019-05-12T12:33:49.835Z,17.88
2019-05-12T12:34:46.747Z,17.97
2019-05-12T12:35:50.344Z,18.03
2019-05-12T12:36:46.188Z,18.61
2019-05-12T12:37:47.525Z,18.78
2019-05-12T12:38:46.668Z,18.6
2019-05-12T12:39:46.146Z,18.78
2019-05-12T12:40:46.899Z,18.49
2019-05-12T12:42:04.367Z,18.81
2019-05-12T12:42:53.789Z,18.51
2019-05-12T12:43:45.931Z,18.66
2019-05-12T12:44:45.010Z,18.74
2019-05-12T12:45:46.190Z,18.81
2019-05-12T12:46:51.110Z,18.83
2019-05-12T12:47:54.022Z,18.41
2019-05-12T12:48:46.640Z,18.67
2019-05-12T12:49:52.009Z,18.49
2019-05-12T12:50:47.244Z,18.53
2019-05-12T12:51:46.189Z,18.55
2019-05-12T12:52:56.142Z,18.16
2019-05-12T12:53:46.550Z,18
2019-05-12T12:54:46.577Z,18.18
2019-05-12T12:55:49.028Z,18.05
2019-05-12T12:56:45.117Z,17.65
2019-05-12T12:57:51.927Z,17.66
2019-05-12T12:58:46.590Z,17.75
2019-05-12T12:59:56.197Z,18.02
2019-05-12T13:00:58.925Z,18.21
2019-05-12T13:01:47.028Z,18.15
2019-05-12T13:02:53.307Z,18.23
2019-05-12T13:03:46.175Z,17.9
2019-05-12T13:04:53.943Z,17.87
2019-05-12T13:05:46.571Z,18.24
2019-05-12T13:06:46.492Z,18.05
2019-05-12T13:07:46.645Z,17.87
2019-05-12T13:08:46.072Z,18.18
2019-05-12T13:09:46.814Z,18.43
2019-05-12T13:10:54.143Z,18
2019-05-12T13:11:47.150Z,18.51
2019-05-12T13:12:50.281Z,18.68
2019-05-12T13:13:45.248Z,18.73
2019-05-12T13:14:47.062Z,18.88
2019-05-12T13:15:47.172Z,18.78
2019-05-12T13:16:49.290Z,18.79
2019-05-12T13:17:47.531Z,18.64
2019-05-12T13:18:46.305Z,18.73
2019-05-12T13:19:48.753Z,18.97
2019-05-12T13:20:46.283Z,18.68
2019-05-12T13:21:46.632Z,18.73
2019-05-12T13:22:58.970Z,18.82
2019-05-12T13:23:50.864Z,18.83
2019-05-12T13:24:46.670Z,18.82
2019-05-12T13:25:57.382Z,19.22
2019-05-12T13:26:46.250Z,19
2019-05-12T13:27:45.089Z,19.41
2019-05-12T13:28:55.093Z,19.32
2019-05-12T13:29:45.283Z,19.44
2019-05-12T13:30:54.713Z,19.32
2019-05-12T13:31:49.519Z,19.56
2019-05-12T13:32:46.842Z,19.64